sensor_id;sensor_type;location;lat;lon;timestamp;temperature;humidity
15178;DHT22;7689;53.612;-2.416;2023-02-15T00:01:04;4.90;99.90
15178;DHT22;7689;53.612;-2.416;2023-02-15T00:03:30;4.90;99.90
15178;DHT22;7689;53.612;-2.416;2023-02-15T00:05:58;4.90;99.90
15178;DHT22;7689;53.612;-2.416;2023-02-15T00:08:24;4.90;99.90
15178;DHT22;7689;53.612;-2.416;2023-02-15T00:10:49;4.80;99.90
15178;DHT22;7689;53.612;-2.416;2023-02-15T00:13:15;4.90;99.90
15178;DHT22;7689;53.612;-2.416;2023-02-15T00:15:40;4.90;99.90
15178;DHT22;7689;53.612;-2.416;2023-02-15T00:18:06;4.80;99.90
15178;DHT22;7689;53.612;-2.416;2023-02-15T00:20:31;4.80;99.90
15178;DHT22;7689;53.612;-2.416;2023-02-15T00:22:58;4.90;99.90
15178;DHT22;7689;53.612;-2.416;2023-02-15T00:25:23;4.80;99.90
15178;DHT22;7689;53.612;-2.416;2023-02-15T00:27:49;4.90;99.90
15178;DHT22;7689;53.612;-2.416;2023-02-15T00:30:15;4.80;99.90
15178;DHT22;7689;53.612;-2.416;2023-02-15T00:32:41;4.80;99.90
15178;DHT22;7689;53.612;-2.416;2023-02-15T00:35:07;4.90;99.90
15178;DHT22;7689;53.612;-2.416;2023-02-15T00:37:32;5.00;99.90
15178;DHT22;7689;53.612;-2.416;2023-02-15T00:39:58;5.00;99.90
15178;DHT22;7689;53.612;-2.416;2023-02-15T00:42:23;5.20;99.90
15178;DHT22;7689;53.612;-2.416;2023-02-15T00:44:49;5.30;99.90
15178;DHT22;7689;53.612;-2.416;2023-02-15T00:47:14;5.40;99.90
15178;DHT22;7689;53.612;-2.416;2023-02-15T00:49:40;5.60;99.90
15178;DHT22;7689;53.612;-2.416;2023-02-15T00:52:05;5.60;99.90
15178;DHT22;7689;53.612;-2.416;2023-02-15T00:54:31;5.60;99.90
15178;DHT22;7689;53.612;-2.416;2023-02-15T00:56:56;5.60;99.90
15178;DHT22;7689;53.612;-2.416;2023-02-15T00:59:22;5.60;99.90
15178;DHT22;7689;53.612;-2.416;2023-02-15T01:01:47;5.70;99.90
15178;DHT22;7689;53.612;-2.416;2023-02-15T01:04:13;5.70;99.90
15178;DHT22;7689;53.612;-2.416;2023-02-15T01:06:38;5.60;99.90
15178;DHT22;7689;53.612;-2.416;2023-02-15T01:09:04;5.50;99.90
15178;DHT22;7689;53.612;-2.416;2023-02-15T01:11:29;5.60;99.90
15178;DHT22;7689;53.612;-2.416;2023-02-15T01:13:55;5.50;99.90
15178;DHT22;7689;53.612;-2.416;2023-02-15T01:16:22;5.50;99.90
15178;DHT22;7689;53.612;-2.416;2023-02-15T01:18:48;5.50;99.90
15178;DHT22;7689;53.612;-2.416;2023-02-15T01:21:14;5.50;99.90
15178;DHT22;7689;53.612;-2.416;2023-02-15T01:23:40;5.70;99.90
15178;DHT22;7689;53.612;-2.416;2023-02-15T01:26:06;5.70;99.90
15178;DHT22;7689;53.612;-2.416;2023-02-15T01:28:32;5.80;99.90
15178;DHT22;7689;53.612;-2.416;2023-02-15T01:30:57;5.50;99.90
15178;DHT22;7689;53.612;-2.416;2023-02-15T01:33:24;5.80;99.90
15178;DHT22;7689;53.612;-2.416;2023-02-15T01:35:55;5.90;99.90
15178;DHT22;7689;53.612;-2.416;2023-02-15T01:38:21;5.90;99.90
15178;DHT22;7689;53.612;-2.416;2023-02-15T01:40:46;5.90;99.90
15178;DHT22;7689;53.612;-2.416;2023-02-15T01:43:12;5.90;99.90
15178;DHT22;7689;53.612;-2.416;2023-02-15T01:45:38;5.90;99.90
15178;DHT22;7689;53.612;-2.416;2023-02-15T01:48:05;5.80;99.90
15178;DHT22;7689;53.612;-2.416;2023-02-15T01:50:33;5.80;99.90
15178;DHT22;7689;53.612;-2.416;2023-02-15T01:53:03;5.80;99.90
15178;DHT22;7689;53.612;-2.416;2023-02-15T01:55:39;5.70;99.90
15178;DHT22;7689;53.612;-2.416;2023-02-15T01:58:05;5.70;99.90
15178;DHT22;7689;53.612;-2.416;2023-02-15T02:00:31;5.70;99.90
15178;DHT22;7689;53.612;-2.416;2023-02-15T02:02:57;5.60;99.90
15178;DHT22;7689;53.612;-2.416;2023-02-15T02:05:23;5.70;99.90
15178;DHT22;7689;53.612;-2.416;2023-02-15T02:07:49;5.70;99.90
15178;DHT22;7689;53.612;-2.416;2023-02-15T02:10:16;5.80;99.90
15178;DHT22;7689;53.612;-2.416;2023-02-15T02:12:43;5.70;99.90
15178;DHT22;7689;53.612;-2.416;2023-02-15T02:15:09;5.60;99.90
15178;DHT22;7689;53.612;-2.416;2023-02-15T02:25:12;5.30;99.90
15178;DHT22;7689;53.612;-2.416;2023-02-15T02:38:18;5.20;99.90
15178;DHT22;7689;53.612;-2.416;2023-02-15T02:40:52;5.20;99.90
15178;DHT22;7689;53.612;-2.416;2023-02-15T02:46:06;5.10;99.90
15178;DHT22;7689;53.612;-2.416;2023-02-15T02:48:35;5.10;99.90
15178;DHT22;7689;53.612;-2.416;2023-02-15T02:51:01;5.10;99.90
15178;DHT22;7689;53.612;-2.416;2023-02-15T02:53:27;5.00;99.90
15178;DHT22;7689;53.612;-2.416;2023-02-15T02:56:13;5.10;99.90
15178;DHT22;7689;53.612;-2.416;2023-02-15T02:59:25;5.10;99.90
15178;DHT22;7689;53.612;-2.416;2023-02-15T03:01:50;5.10;99.90
15178;DHT22;7689;53.612;-2.416;2023-02-15T03:04:18;5.10;99.90
15178;DHT22;7689;53.612;-2.416;2023-02-15T03:06:52;5.20;99.90
15178;DHT22;7689;53.612;-2.416;2023-02-15T03:09:28;5.20;99.90
15178;DHT22;7689;53.612;-2.416;2023-02-15T03:12:11;5.10;99.90
15178;DHT22;7689;53.612;-2.416;2023-02-15T03:14:38;5.00;99.90
15178;DHT22;7689;53.612;-2.416;2023-02-15T03:17:05;4.70;99.90
15178;DHT22;7689;53.612;-2.416;2023-02-15T03:19:32;4.70;99.90
15178;DHT22;7689;53.612;-2.416;2023-02-15T03:22:00;4.60;99.90
15178;DHT22;7689;53.612;-2.416;2023-02-15T03:24:35;4.70;99.90
15178;DHT22;7689;53.612;-2.416;2023-02-15T03:27:02;4.80;99.90
15178;DHT22;7689;53.612;-2.416;2023-02-15T03:29:28;4.70;99.90
15178;DHT22;7689;53.612;-2.416;2023-02-15T03:31:57;4.70;99.90
15178;DHT22;7689;53.612;-2.416;2023-02-15T03:34:24;4.80;99.90
15178;DHT22;7689;53.612;-2.416;2023-02-15T03:44:31;4.80;99.90
15178;DHT22;7689;53.612;-2.416;2023-02-15T03:51:51;4.90;99.90
15178;DHT22;7689;53.612;-2.416;2023-02-15T03:54:28;4.90;99.90
15178;DHT22;7689;53.612;-2.416;2023-02-15T03:57:20;4.90;99.90
15178;DHT22;7689;53.612;-2.416;2023-02-15T04:00:13;4.90;99.90
15178;DHT22;7689;53.612;-2.416;2023-02-15T04:05:25;4.80;99.90
15178;DHT22;7689;53.612;-2.416;2023-02-15T04:07:51;4.80;99.90
15178;DHT22;7689;53.612;-2.416;2023-02-15T04:10:17;4.80;99.90
15178;DHT22;7689;53.612;-2.416;2023-02-15T04:13:00;4.80;99.90
15178;DHT22;7689;53.612;-2.416;2023-02-15T04:15:26;4.80;99.90
15178;DHT22;7689;53.612;-2.416;2023-02-15T04:18:10;4.80;99.90
15178;DHT22;7689;53.612;-2.416;2023-02-15T04:20:35;4.80;99.90
15178;DHT22;7689;53.612;-2.416;2023-02-15T04:23:19;4.70;99.90
15178;DHT22;7689;53.612;-2.416;2023-02-15T04:26:04;4.60;99.90
15178;DHT22;7689;53.612;-2.416;2023-02-15T04:28:30;4.60;99.90
15178;DHT22;7689;53.612;-2.416;2023-02-15T04:30:55;4.60;99.90
15178;DHT22;7689;53.612;-2.416;2023-02-15T04:33:21;4.70;99.90
15178;DHT22;7689;53.612;-2.416;2023-02-15T04:35:46;4.70;99.90
15178;DHT22;7689;53.612;-2.416;2023-02-15T04:38:12;4.50;99.90
15178;DHT22;7689;53.612;-2.416;2023-02-15T04:40:37;4.40;99.90
15178;DHT22;7689;53.612;-2.416;2023-02-15T04:43:03;4.40;99.90
15178;DHT22;7689;53.612;-2.416;2023-02-15T04:45:28;4.40;99.90
15178;DHT22;7689;53.612;-2.416;2023-02-15T04:47:54;4.40;99.90
15178;DHT22;7689;53.612;-2.416;2023-02-15T04:50:20;4.40;99.90
15178;DHT22;7689;53.612;-2.416;2023-02-15T04:52:45;4.40;99.90
15178;DHT22;7689;53.612;-2.416;2023-02-15T04:55:11;4.40;99.90
15178;DHT22;7689;53.612;-2.416;2023-02-15T04:57:36;4.50;99.90
15178;DHT22;7689;53.612;-2.416;2023-02-15T05:00:02;4.60;99.90
15178;DHT22;7689;53.612;-2.416;2023-02-15T05:02:27;4.60;99.90
15178;DHT22;7689;53.612;-2.416;2023-02-15T05:04:53;4.50;99.90
15178;DHT22;7689;53.612;-2.416;2023-02-15T05:07:18;4.50;99.90
15178;DHT22;7689;53.612;-2.416;2023-02-15T05:09:45;4.40;99.90
15178;DHT22;7689;53.612;-2.416;2023-02-15T05:12:11;4.40;99.90
15178;DHT22;7689;53.612;-2.416;2023-02-15T05:14:36;4.40;99.90
15178;DHT22;7689;53.612;-2.416;2023-02-15T05:17:02;4.20;99.90
15178;DHT22;7689;53.612;-2.416;2023-02-15T05:19:28;4.10;99.90
15178;DHT22;7689;53.612;-2.416;2023-02-15T05:21:54;3.90;99.90
15178;DHT22;7689;53.612;-2.416;2023-02-15T05:24:19;3.60;99.90
15178;DHT22;7689;53.612;-2.416;2023-02-15T05:27:04;3.50;99.90
15178;DHT22;7689;53.612;-2.416;2023-02-15T05:29:48;3.40;99.90
15178;DHT22;7689;53.612;-2.416;2023-02-15T05:32:13;3.40;99.90
15178;DHT22;7689;53.612;-2.416;2023-02-15T05:34:39;3.50;99.90
15178;DHT22;7689;53.612;-2.416;2023-02-15T05:37:05;3.50;99.90
15178;DHT22;7689;53.612;-2.416;2023-02-15T05:39:30;3.60;99.90
15178;DHT22;7689;53.612;-2.416;2023-02-15T05:41:58;3.40;99.90
15178;DHT22;7689;53.612;-2.416;2023-02-15T05:44:24;3.50;99.90
15178;DHT22;7689;53.612;-2.416;2023-02-15T05:46:49;3.50;99.90
15178;DHT22;7689;53.612;-2.416;2023-02-15T05:49:15;3.30;99.90
15178;DHT22;7689;53.612;-2.416;2023-02-15T05:51:40;3.40;99.90
15178;DHT22;7689;53.612;-2.416;2023-02-15T05:54:06;3.50;99.90
15178;DHT22;7689;53.612;-2.416;2023-02-15T05:56:31;3.60;99.90
15178;DHT22;7689;53.612;-2.416;2023-02-15T05:58:57;3.70;99.90
15178;DHT22;7689;53.612;-2.416;2023-02-15T06:01:22;3.50;99.90
15178;DHT22;7689;53.612;-2.416;2023-02-15T06:03:48;3.30;99.90
15178;DHT22;7689;53.612;-2.416;2023-02-15T06:06:14;3.20;99.90
15178;DHT22;7689;53.612;-2.416;2023-02-15T06:08:40;3.10;99.90
15178;DHT22;7689;53.612;-2.416;2023-02-15T06:11:06;3.00;99.90
15178;DHT22;7689;53.612;-2.416;2023-02-15T06:13:32;3.10;99.90
15178;DHT22;7689;53.612;-2.416;2023-02-15T06:15:57;3.10;99.90
15178;DHT22;7689;53.612;-2.416;2023-02-15T06:18:23;3.10;99.90
15178;DHT22;7689;53.612;-2.416;2023-02-15T06:20:49;3.10;99.90
15178;DHT22;7689;53.612;-2.416;2023-02-15T06:23:14;3.30;99.90
15178;DHT22;7689;53.612;-2.416;2023-02-15T06:25:40;3.40;99.90
15178;DHT22;7689;53.612;-2.416;2023-02-15T06:28:06;3.50;99.90
15178;DHT22;7689;53.612;-2.416;2023-02-15T06:30:31;3.50;99.90
15178;DHT22;7689;53.612;-2.416;2023-02-15T06:32:57;3.50;99.90
15178;DHT22;7689;53.612;-2.416;2023-02-15T06:35:22;3.50;99.90
15178;DHT22;7689;53.612;-2.416;2023-02-15T06:37:48;3.50;99.90
15178;DHT22;7689;53.612;-2.416;2023-02-15T06:40:13;3.50;99.90
15178;DHT22;7689;53.612;-2.416;2023-02-15T06:42:39;3.50;99.90
15178;DHT22;7689;53.612;-2.416;2023-02-15T06:45:06;3.60;99.90
15178;DHT22;7689;53.612;-2.416;2023-02-15T06:47:31;3.60;99.90
15178;DHT22;7689;53.612;-2.416;2023-02-15T06:49:57;3.60;99.90
15178;DHT22;7689;53.612;-2.416;2023-02-15T06:52:23;3.70;99.90
15178;DHT22;7689;53.612;-2.416;2023-02-15T06:54:48;3.60;99.90
15178;DHT22;7689;53.612;-2.416;2023-02-15T06:57:14;3.60;99.90
15178;DHT22;7689;53.612;-2.416;2023-02-15T06:59:39;3.60;99.90
15178;DHT22;7689;53.612;-2.416;2023-02-15T07:02:05;3.60;99.90
15178;DHT22;7689;53.612;-2.416;2023-02-15T07:04:30;3.60;99.90
15178;DHT22;7689;53.612;-2.416;2023-02-15T07:06:56;3.70;99.90
15178;DHT22;7689;53.612;-2.416;2023-02-15T07:09:21;3.80;99.90
15178;DHT22;7689;53.612;-2.416;2023-02-15T07:11:47;3.80;99.90
15178;DHT22;7689;53.612;-2.416;2023-02-15T07:14:31;3.90;99.90
15178;DHT22;7689;53.612;-2.416;2023-02-15T07:16:57;2.90;99.90
15178;DHT22;7689;53.612;-2.416;2023-02-15T07:19:23;4.00;99.90
15178;DHT22;7689;53.612;-2.416;2023-02-15T07:21:48;4.00;99.90
15178;DHT22;7689;53.612;-2.416;2023-02-15T07:24:14;4.00;99.90
15178;DHT22;7689;53.612;-2.416;2023-02-15T07:26:39;4.10;99.90
15178;DHT22;7689;53.612;-2.416;2023-02-15T07:29:05;4.20;99.90
15178;DHT22;7689;53.612;-2.416;2023-02-15T07:31:30;4.30;99.90
15178;DHT22;7689;53.612;-2.416;2023-02-15T07:33:56;4.30;99.90
15178;DHT22;7689;53.612;-2.416;2023-02-15T07:36:21;4.20;99.90
15178;DHT22;7689;53.612;-2.416;2023-02-15T07:38:47;4.20;99.90
15178;DHT22;7689;53.612;-2.416;2023-02-15T07:41:13;4.20;99.90
15178;DHT22;7689;53.612;-2.416;2023-02-15T07:43:40;4.20;99.90
15178;DHT22;7689;53.612;-2.416;2023-02-15T07:46:07;4.20;99.90
15178;DHT22;7689;53.612;-2.416;2023-02-15T07:48:34;4.20;99.90
15178;DHT22;7689;53.612;-2.416;2023-02-15T07:51:00;4.30;99.90
15178;DHT22;7689;53.612;-2.416;2023-02-15T07:53:26;4.30;99.90
15178;DHT22;7689;53.612;-2.416;2023-02-15T07:55:51;4.30;99.90
15178;DHT22;7689;53.612;-2.416;2023-02-15T07:58:18;4.20;99.90
15178;DHT22;7689;53.612;-2.416;2023-02-15T08:00:43;4.30;99.90
15178;DHT22;7689;53.612;-2.416;2023-02-15T08:03:24;4.50;99.90
15178;DHT22;7689;53.612;-2.416;2023-02-15T08:05:58;4.90;99.90
15178;DHT22;7689;53.612;-2.416;2023-02-15T08:08:24;5.10;99.90
15178;DHT22;7689;53.612;-2.416;2023-02-15T08:10:59;5.20;99.90
15178;DHT22;7689;53.612;-2.416;2023-02-15T08:13:53;5.50;99.90
15178;DHT22;7689;53.612;-2.416;2023-02-15T08:16:21;5.90;99.90
15178;DHT22;7689;53.612;-2.416;2023-02-15T08:18:46;6.20;99.90
15178;DHT22;7689;53.612;-2.416;2023-02-15T08:21:13;6.50;99.90
15178;DHT22;7689;53.612;-2.416;2023-02-15T08:23:38;6.70;99.90
15178;DHT22;7689;53.612;-2.416;2023-02-15T08:26:04;6.90;99.90
15178;DHT22;7689;53.612;-2.416;2023-02-15T08:28:30;7.10;99.90
15178;DHT22;7689;53.612;-2.416;2023-02-15T08:30:55;7.30;99.90
15178;DHT22;7689;53.612;-2.416;2023-02-15T08:33:21;7.50;99.90
15178;DHT22;7689;53.612;-2.416;2023-02-15T08:35:46;7.80;99.90
15178;DHT22;7689;53.612;-2.416;2023-02-15T08:38:12;8.10;99.90
15178;DHT22;7689;53.612;-2.416;2023-02-15T08:40:37;8.40;99.90
15178;DHT22;7689;53.612;-2.416;2023-02-15T08:43:03;8.60;99.90
15178;DHT22;7689;53.612;-2.416;2023-02-15T08:45:29;8.70;99.90
15178;DHT22;7689;53.612;-2.416;2023-02-15T08:47:54;8.60;99.90
15178;DHT22;7689;53.612;-2.416;2023-02-15T08:50:20;8.60;99.90
15178;DHT22;7689;53.612;-2.416;2023-02-15T08:52:45;8.50;99.90
15178;DHT22;7689;53.612;-2.416;2023-02-15T08:55:11;8.20;99.90
15178;DHT22;7689;53.612;-2.416;2023-02-15T08:57:36;7.80;99.90
15178;DHT22;7689;53.612;-2.416;2023-02-15T09:00:03;7.30;99.90
15178;DHT22;7689;53.612;-2.416;2023-02-15T09:02:30;7.30;99.90
15178;DHT22;7689;53.612;-2.416;2023-02-15T09:04:55;7.10;99.90
15178;DHT22;7689;53.612;-2.416;2023-02-15T09:07:21;6.80;99.90
15178;DHT22;7689;53.612;-2.416;2023-02-15T09:09:46;6.40;99.90
15178;DHT22;7689;53.612;-2.416;2023-02-15T09:12:12;6.40;99.90
15178;DHT22;7689;53.612;-2.416;2023-02-15T09:14:38;6.30;99.90
15178;DHT22;7689;53.612;-2.416;2023-02-15T09:17:04;6.40;99.90
15178;DHT22;7689;53.612;-2.416;2023-02-15T09:19:29;6.40;99.90
15178;DHT22;7689;53.612;-2.416;2023-02-15T09:21:55;6.50;99.90
15178;DHT22;7689;53.612;-2.416;2023-02-15T09:24:20;6.50;99.90
15178;DHT22;7689;53.612;-2.416;2023-02-15T09:26:47;6.50;99.90
15178;DHT22;7689;53.612;-2.416;2023-02-15T09:29:13;6.70;99.90
15178;DHT22;7689;53.612;-2.416;2023-02-15T09:31:40;6.70;99.90
15178;DHT22;7689;53.612;-2.416;2023-02-15T09:34:06;6.70;99.90
15178;DHT22;7689;53.612;-2.416;2023-02-15T09:36:34;6.70;99.90
15178;DHT22;7689;53.612;-2.416;2023-02-15T09:39:09;6.70;99.90
15178;DHT22;7689;53.612;-2.416;2023-02-15T09:49:07;7.00;99.90
15178;DHT22;7689;53.612;-2.416;2023-02-15T09:57:04;7.10;99.90
15178;DHT22;7689;53.612;-2.416;2023-02-15T10:02:06;7.20;99.90
15178;DHT22;7689;53.612;-2.416;2023-02-15T10:04:42;7.20;99.90
15178;DHT22;7689;53.612;-2.416;2023-02-15T10:27:46;7.90;99.90
15178;DHT22;7689;53.612;-2.416;2023-02-15T10:30:13;7.80;99.90
15178;DHT22;7689;53.612;-2.416;2023-02-15T10:35:22;7.90;99.90
15178;DHT22;7689;53.612;-2.416;2023-02-15T10:37:58;8.10;99.90
15178;DHT22;7689;53.612;-2.416;2023-02-15T10:45:41;8.50;99.90
15178;DHT22;7689;53.612;-2.416;2023-02-15T10:53:19;8.90;99.90
15178;DHT22;7689;53.612;-2.416;2023-02-15T11:06:05;9.20;99.90
15178;DHT22;7689;53.612;-2.416;2023-02-15T11:08:34;9.20;99.90
15178;DHT22;7689;53.612;-2.416;2023-02-15T11:11:02;9.20;99.90
15178;DHT22;7689;53.612;-2.416;2023-02-15T11:13:34;9.20;99.90
15178;DHT22;7689;53.612;-2.416;2023-02-15T11:18:52;9.00;99.90
15178;DHT22;7689;53.612;-2.416;2023-02-15T11:21:37;9.00;99.90
15178;DHT22;7689;53.612;-2.416;2023-02-15T11:24:12;8.90;99.90
15178;DHT22;7689;53.612;-2.416;2023-02-15T11:26:54;8.80;99.90
15178;DHT22;7689;53.612;-2.416;2023-02-15T11:29:27;8.80;99.90
15178;DHT22;7689;53.612;-2.416;2023-02-15T11:32:30;8.70;99.90
15178;DHT22;7689;53.612;-2.416;2023-02-15T11:37:15;8.70;99.90
15178;DHT22;7689;53.612;-2.416;2023-02-15T11:39:42;7.50;99.90
15178;DHT22;7689;53.612;-2.416;2023-02-15T11:42:11;8.60;99.90
15178;DHT22;7689;53.612;-2.416;2023-02-15T11:44:39;8.50;99.90
15178;DHT22;7689;53.612;-2.416;2023-02-15T11:47:10;8.50;99.90
15178;DHT22;7689;53.612;-2.416;2023-02-15T11:49:36;8.50;99.90
15178;DHT22;7689;53.612;-2.416;2023-02-15T11:52:05;8.50;99.90
15178;DHT22;7689;53.612;-2.416;2023-02-15T11:54:32;8.40;99.90
15178;DHT22;7689;53.612;-2.416;2023-02-15T11:57:00;8.40;99.90
15178;DHT22;7689;53.612;-2.416;2023-02-15T11:59:27;8.40;99.90
15178;DHT22;7689;53.612;-2.416;2023-02-15T12:01:54;8.40;99.90
15178;DHT22;7689;53.612;-2.416;2023-02-15T12:04:21;8.40;99.90
15178;DHT22;7689;53.612;-2.416;2023-02-15T12:06:51;8.30;99.90
15178;DHT22;7689;53.612;-2.416;2023-02-15T12:14:48;8.00;99.90
15178;DHT22;7689;53.612;-2.416;2023-02-15T12:17:14;8.00;99.90
15178;DHT22;7689;53.612;-2.416;2023-02-15T12:19:41;7.80;99.90
15178;DHT22;7689;53.612;-2.416;2023-02-15T12:22:17;7.80;99.90
15178;DHT22;7689;53.612;-2.416;2023-02-15T12:24:46;7.80;99.90
15178;DHT22;7689;53.612;-2.416;2023-02-15T12:27:16;7.80;99.90
15178;DHT22;7689;53.612;-2.416;2023-02-15T12:29:48;7.80;99.90
15178;DHT22;7689;53.612;-2.416;2023-02-15T12:32:18;7.80;99.90
15178;DHT22;7689;53.612;-2.416;2023-02-15T12:34:44;7.80;99.90
15178;DHT22;7689;53.612;-2.416;2023-02-15T12:37:15;7.80;99.90
15178;DHT22;7689;53.612;-2.416;2023-02-15T12:39:52;7.80;99.90
15178;DHT22;7689;53.612;-2.416;2023-02-15T12:42:18;7.80;99.90
15178;DHT22;7689;53.612;-2.416;2023-02-15T12:44:58;7.80;99.90
15178;DHT22;7689;53.612;-2.416;2023-02-15T12:47:24;7.80;99.90
15178;DHT22;7689;53.612;-2.416;2023-02-15T12:52:42;7.60;99.90
15178;DHT22;7689;53.612;-2.416;2023-02-15T12:55:10;7.60;99.90
15178;DHT22;7689;53.612;-2.416;2023-02-15T12:57:36;7.70;99.90
15178;DHT22;7689;53.612;-2.416;2023-02-15T13:00:05;7.70;99.90
15178;DHT22;7689;53.612;-2.416;2023-02-15T13:02:48;7.60;99.90
15178;DHT22;7689;53.612;-2.416;2023-02-15T13:05:18;7.70;99.90
15178;DHT22;7689;53.612;-2.416;2023-02-15T13:07:45;7.70;99.90
15178;DHT22;7689;53.612;-2.416;2023-02-15T13:10:21;7.70;99.90
15178;DHT22;7689;53.612;-2.416;2023-02-15T13:12:47;7.80;99.90
15178;DHT22;7689;53.612;-2.416;2023-02-15T13:15:23;7.80;99.90
15178;DHT22;7689;53.612;-2.416;2023-02-15T13:17:50;7.80;99.90
15178;DHT22;7689;53.612;-2.416;2023-02-15T13:20:19;7.80;99.90
15178;DHT22;7689;53.612;-2.416;2023-02-15T13:22:48;7.80;99.90
15178;DHT22;7689;53.612;-2.416;2023-02-15T13:25:15;7.90;99.90
15178;DHT22;7689;53.612;-2.416;2023-02-15T13:27:43;7.90;99.90
15178;DHT22;7689;53.612;-2.416;2023-02-15T13:30:26;8.10;99.90
15178;DHT22;7689;53.612;-2.416;2023-02-15T13:32:54;8.10;99.90
15178;DHT22;7689;53.612;-2.416;2023-02-15T13:35:21;8.20;99.90
15178;DHT22;7689;53.612;-2.416;2023-02-15T13:43:37;8.40;99.90
15178;DHT22;7689;53.612;-2.416;2023-02-15T13:59:07;8.50;99.90
15178;DHT22;7689;53.612;-2.416;2023-02-15T14:06:55;8.60;99.90
15178;DHT22;7689;53.612;-2.416;2023-02-15T14:12:24;8.70;99.90
15178;DHT22;7689;53.612;-2.416;2023-02-15T14:22:36;9.10;99.90
15178;DHT22;7689;53.612;-2.416;2023-02-15T14:30:15;9.30;99.90
15178;DHT22;7689;53.612;-2.416;2023-02-15T14:32:44;9.20;99.90
15178;DHT22;7689;53.612;-2.416;2023-02-15T14:35:15;9.30;99.90
15178;DHT22;7689;53.612;-2.416;2023-02-15T14:43:01;9.40;99.90
15178;DHT22;7689;53.612;-2.416;2023-02-15T14:50:46;9.40;99.90
15178;DHT22;7689;53.612;-2.416;2023-02-15T14:55:43;9.20;99.90
15178;DHT22;7689;53.612;-2.416;2023-02-15T14:58:12;9.30;99.90
15178;DHT22;7689;53.612;-2.416;2023-02-15T15:00:41;9.30;99.90
15178;DHT22;7689;53.612;-2.416;2023-02-15T15:03:20;9.30;99.90
15178;DHT22;7689;53.612;-2.416;2023-02-15T15:05:49;9.40;99.90
15178;DHT22;7689;53.612;-2.416;2023-02-15T15:11:36;9.40;99.90
15178;DHT22;7689;53.612;-2.416;2023-02-15T15:14:01;9.40;99.90
15178;DHT22;7689;53.612;-2.416;2023-02-15T15:18:53;9.20;99.90
15178;DHT22;7689;53.612;-2.416;2023-02-15T15:24:05;9.20;99.90
15178;DHT22;7689;53.612;-2.416;2023-02-15T15:26:31;9.20;99.90
15178;DHT22;7689;53.612;-2.416;2023-02-15T15:29:06;9.30;99.90
15178;DHT22;7689;53.612;-2.416;2023-02-15T15:31:37;9.30;99.90
15178;DHT22;7689;53.612;-2.416;2023-02-15T15:39:42;9.40;99.90
15178;DHT22;7689;53.612;-2.416;2023-02-15T15:41:42;9.40;99.90
15178;DHT22;7689;53.612;-2.416;2023-02-15T15:49:24;9.40;99.90
15178;DHT22;7689;53.612;-2.416;2023-02-15T15:51:52;9.30;99.90
15178;DHT22;7689;53.612;-2.416;2023-02-15T15:54:21;9.20;99.90
15178;DHT22;7689;53.612;-2.416;2023-02-15T15:56:48;9.20;99.90
15178;DHT22;7689;53.612;-2.416;2023-02-15T15:59:22;9.20;99.90
15178;DHT22;7689;53.612;-2.416;2023-02-15T16:01:48;9.20;99.90
15178;DHT22;7689;53.612;-2.416;2023-02-15T16:04:25;9.30;99.90
15178;DHT22;7689;53.612;-2.416;2023-02-15T16:06:51;9.30;99.90
15178;DHT22;7689;53.612;-2.416;2023-02-15T16:09:18;9.30;99.90
15178;DHT22;7689;53.612;-2.416;2023-02-15T16:11:48;9.30;99.90
15178;DHT22;7689;53.612;-2.416;2023-02-15T16:14:16;9.30;99.90
15178;DHT22;7689;53.612;-2.416;2023-02-15T16:16:46;9.10;99.90
15178;DHT22;7689;53.612;-2.416;2023-02-15T16:19:28;9.10;99.90
15178;DHT22;7689;53.612;-2.416;2023-02-15T16:21:55;9.00;99.90
15178;DHT22;7689;53.612;-2.416;2023-02-15T16:24:30;9.00;99.90
15178;DHT22;7689;53.612;-2.416;2023-02-15T16:27:07;9.00;99.90
15178;DHT22;7689;53.612;-2.416;2023-02-15T16:29:35;9.00;99.90
15178;DHT22;7689;53.612;-2.416;2023-02-15T16:32:05;9.10;99.90
15178;DHT22;7689;53.612;-2.416;2023-02-15T16:34:31;9.00;99.90
15178;DHT22;7689;53.612;-2.416;2023-02-15T16:37:16;9.00;99.90
15178;DHT22;7689;53.612;-2.416;2023-02-15T16:39:42;9.00;99.90
15178;DHT22;7689;53.612;-2.416;2023-02-15T16:42:08;9.00;99.90
15178;DHT22;7689;53.612;-2.416;2023-02-15T16:44:33;8.90;99.90
15178;DHT22;7689;53.612;-2.416;2023-02-15T16:46:59;8.80;99.90
15178;DHT22;7689;53.612;-2.416;2023-02-15T16:49:27;8.80;99.90
15178;DHT22;7689;53.612;-2.416;2023-02-15T16:52:03;8.80;99.90
15178;DHT22;7689;53.612;-2.416;2023-02-15T16:54:31;8.70;99.90
15178;DHT22;7689;53.612;-2.416;2023-02-15T16:56:57;8.70;99.90
15178;DHT22;7689;53.612;-2.416;2023-02-15T16:59:28;8.60;99.90
15178;DHT22;7689;53.612;-2.416;2023-02-15T17:01:55;8.60;99.90
15178;DHT22;7689;53.612;-2.416;2023-02-15T17:04:26;8.50;99.90
15178;DHT22;7689;53.612;-2.416;2023-02-15T17:07:05;8.40;99.90
15178;DHT22;7689;53.612;-2.416;2023-02-15T17:09:31;8.40;99.90
15178;DHT22;7689;53.612;-2.416;2023-02-15T17:11:57;8.40;99.90
15178;DHT22;7689;53.612;-2.416;2023-02-15T17:14:29;8.30;99.90
15178;DHT22;7689;53.612;-2.416;2023-02-15T17:17:02;8.30;99.90
15178;DHT22;7689;53.612;-2.416;2023-02-15T17:19:31;8.50;99.90
15178;DHT22;7689;53.612;-2.416;2023-02-15T17:21:59;8.30;99.90
15178;DHT22;7689;53.612;-2.416;2023-02-15T17:26:53;8.20;99.90
15178;DHT22;7689;53.612;-2.416;2023-02-15T17:29:36;8.20;99.90
15178;DHT22;7689;53.612;-2.416;2023-02-15T17:32:02;8.20;99.90
15178;DHT22;7689;53.612;-2.416;2023-02-15T17:37:27;8.20;99.90
15178;DHT22;7689;53.612;-2.416;2023-02-15T17:39:53;8.20;99.90
15178;DHT22;7689;53.612;-2.416;2023-02-15T17:42:19;8.20;99.90
15178;DHT22;7689;53.612;-2.416;2023-02-15T17:44:45;8.10;99.90
15178;DHT22;7689;53.612;-2.416;2023-02-15T17:47:14;8.00;99.90
15178;DHT22;7689;53.612;-2.416;2023-02-15T17:49:40;8.00;99.90
15178;DHT22;7689;53.612;-2.416;2023-02-15T17:52:08;7.90;99.90
15178;DHT22;7689;53.612;-2.416;2023-02-15T17:54:35;7.80;99.90
15178;DHT22;7689;53.612;-2.416;2023-02-15T17:57:19;7.70;99.90
15178;DHT22;7689;53.612;-2.416;2023-02-15T17:59:44;7.70;99.90
15178;DHT22;7689;53.612;-2.416;2023-02-15T18:02:31;7.60;99.90
15178;DHT22;7689;53.612;-2.416;2023-02-15T18:05:16;7.50;99.90
15178;DHT22;7689;53.612;-2.416;2023-02-15T18:08:01;7.30;99.90
15178;DHT22;7689;53.612;-2.416;2023-02-15T18:10:45;7.00;99.90
15178;DHT22;7689;53.612;-2.416;2023-02-15T18:13:29;6.90;99.90
15178;DHT22;7689;53.612;-2.416;2023-02-15T18:15:54;6.80;99.90
15178;DHT22;7689;53.612;-2.416;2023-02-15T18:18:20;6.70;99.90
15178;DHT22;7689;53.612;-2.416;2023-02-15T18:20:46;6.60;99.90
15178;DHT22;7689;53.612;-2.416;2023-02-15T18:23:12;6.50;99.90
15178;DHT22;7689;53.612;-2.416;2023-02-15T18:25:38;6.50;99.90
15178;DHT22;7689;53.612;-2.416;2023-02-15T18:28:04;6.40;99.90
15178;DHT22;7689;53.612;-2.416;2023-02-15T18:30:30;6.40;99.90
15178;DHT22;7689;53.612;-2.416;2023-02-15T18:32:56;6.40;99.90
15178;DHT22;7689;53.612;-2.416;2023-02-15T18:35:23;6.50;99.90
15178;DHT22;7689;53.612;-2.416;2023-02-15T18:37:51;6.50;99.90
15178;DHT22;7689;53.612;-2.416;2023-02-15T18:40:17;6.50;99.90
15178;DHT22;7689;53.612;-2.416;2023-02-15T18:42:43;6.50;99.90
15178;DHT22;7689;53.612;-2.416;2023-02-15T18:47:40;6.50;99.90
15178;DHT22;7689;53.612;-2.416;2023-02-15T18:50:06;6.50;99.90
15178;DHT22;7689;53.612;-2.416;2023-02-15T18:52:32;6.50;99.90
15178;DHT22;7689;53.612;-2.416;2023-02-15T18:54:59;6.50;99.90
15178;DHT22;7689;53.612;-2.416;2023-02-15T18:57:26;6.50;99.90
15178;DHT22;7689;53.612;-2.416;2023-02-15T18:59:52;6.50;99.90
15178;DHT22;7689;53.612;-2.416;2023-02-15T19:02:18;6.50;99.90